createdAt,value
2018-02-08T00:02:04.732Z,-0.10
2018-02-08T00:04:32.702Z,-0.20
2018-02-08T00:07:00.671Z,-0.20
2018-02-08T00:09:28.811Z,-0.20
2018-02-08T00:11:57.018Z,-0.20
2018-02-08T00:14:25.089Z,-0.20
2018-02-08T00:16:52.956Z,-0.20
2018-02-08T00:19:21.131Z,-0.20
2018-02-08T00:21:49.994Z,-0.10
2018-02-08T00:24:17.991Z,-0.10
2018-02-08T00:26:46.022Z,-0.10
2018-02-08T00:29:13.929Z,-0.10
2018-02-08T00:31:41.984Z,-0.10
2018-02-08T00:34:10.043Z,-0.20
2018-02-08T00:36:38.046Z,-0.20
2018-02-08T00:39:06.514Z,-0.20
2018-02-08T00:41:34.501Z,-0.20
2018-02-08T00:44:02.364Z,-0.10
2018-02-08T00:46:30.434Z,-0.10
2018-02-08T00:48:58.611Z,-0.10
2018-02-08T00:51:26.583Z,-0.10
2018-02-08T00:53:54.748Z,-0.10
2018-02-08T00:56:22.719Z,-0.10
2018-02-08T00:58:50.894Z,-0.10
2018-02-08T01:01:19.065Z,-0.20
2018-02-08T01:03:47.247Z,-0.20
2018-02-08T01:06:15.232Z,-0.20
2018-02-08T01:08:43.177Z,-0.20
2018-02-08T01:11:11.116Z,-0.20
2018-02-08T01:13:39.125Z,-0.20
2018-02-08T01:16:06.985Z,-0.20
2018-02-08T01:18:34.953Z,-0.20
2018-02-08T01:21:03.026Z,-0.20
2018-02-08T01:23:30.994Z,-0.20
2018-02-08T01:25:59.069Z,-0.20
2018-02-08T01:28:27.262Z,-0.30
2018-02-08T01:30:55.312Z,-0.30
2018-02-08T01:33:23.278Z,-0.30
2018-02-08T01:35:51.353Z,-0.40
2018-02-08T01:38:20.013Z,-0.30
2018-02-08T01:40:47.906Z,-0.40
2018-02-08T01:43:15.794Z,-0.40
2018-02-08T01:45:43.751Z,-0.40
2018-02-08T01:48:11.813Z,-0.40
2018-02-08T01:50:39.978Z,-0.40
2018-02-08T01:53:07.961Z,-0.50
2018-02-08T01:55:36.334Z,-0.40
2018-02-08T01:58:04.304Z,-0.50
2018-02-08T02:00:32.645Z,-0.50
2018-02-08T02:03:00.922Z,-0.50
2018-02-08T02:05:29.047Z,-0.50
2018-02-08T02:07:57.100Z,-0.50
2018-02-08T02:10:25.072Z,-0.60
2018-02-08T02:12:53.010Z,-0.60
2018-02-08T02:15:21.304Z,-0.60
2018-02-08T02:17:49.594Z,-0.60
2018-02-08T02:20:17.498Z,-0.60
2018-02-08T02:22:46.258Z,-0.70
2018-02-08T02:25:14.287Z,-0.80
2018-02-08T02:27:42.402Z,-0.80
2018-02-08T02:30:10.361Z,-0.90
2018-02-08T02:32:38.436Z,-0.90
2018-02-08T02:35:06.505Z,-1.00
2018-02-08T02:37:34.388Z,-1.10
2018-02-08T02:40:02.287Z,-1.20
2018-02-08T02:42:30.204Z,-1.30
2018-02-08T02:44:58.080Z,-1.40
2018-02-08T02:47:26.142Z,-1.40
2018-02-08T02:49:54.019Z,-1.40
2018-02-08T02:52:22.081Z,-1.50
2018-02-08T02:54:50.159Z,-1.50
2018-02-08T02:57:18.135Z,-1.50
2018-02-08T02:59:46.192Z,-1.60
2018-02-08T03:02:14.226Z,-1.60
2018-02-08T03:04:42.131Z,-1.60
2018-02-08T03:07:09.998Z,-1.60
2018-02-08T03:09:37.881Z,-1.60
2018-02-08T03:12:05.732Z,-1.60
2018-02-08T03:14:33.600Z,-1.70
2018-02-08T03:17:01.467Z,-1.90
2018-02-08T03:19:29.341Z,-2.00
2018-02-08T03:21:57.201Z,-2.10
2018-02-08T03:24:25.076Z,-2.00
2018-02-08T03:26:53.038Z,-2.00
2018-02-08T03:29:21.008Z,-2.00
2018-02-08T03:31:48.938Z,-2.00
2018-02-08T03:34:16.914Z,-2.00
2018-02-08T03:36:44.809Z,-2.00
2018-02-08T03:39:12.889Z,-2.10
2018-02-08T03:41:40.970Z,-2.10
2018-02-08T03:44:08.828Z,-2.10
2018-02-08T03:46:36.698Z,-2.10
2018-02-08T03:49:04.478Z,-2.00
2018-02-08T03:51:32.420Z,-2.00
2018-02-08T03:54:00.302Z,-2.00
2018-02-08T03:56:28.155Z,-2.10
2018-02-08T03:58:56.236Z,-2.10
2018-02-08T04:01:24.091Z,-2.10
2018-02-08T04:03:52.079Z,-2.20
2018-02-08T04:06:20.133Z,-2.10
2018-02-08T04:08:48.000Z,-2.10
2018-02-08T04:11:15.907Z,-2.10
2018-02-08T04:13:44.656Z,-2.10
2018-02-08T04:16:12.522Z,-2.10
2018-02-08T04:18:40.492Z,-2.10
2018-02-08T04:21:08.668Z,-2.20
2018-02-08T04:23:36.701Z,-2.20
2018-02-08T04:26:04.642Z,-2.20
2018-02-08T04:28:32.472Z,-2.30
2018-02-08T04:31:00.340Z,-2.30
2018-02-08T04:33:28.226Z,-2.20
2018-02-08T04:35:56.009Z,-2.20
2018-02-08T04:38:36.571Z,-2.30
2018-02-08T04:41:16.996Z,-2.30
2018-02-08T04:43:56.801Z,-2.30
2018-02-08T04:46:36.897Z,-2.30
2018-02-08T04:49:04.762Z,-2.30
2018-02-08T04:51:32.654Z,-2.40
2018-02-08T04:54:00.614Z,-2.50
2018-02-08T04:56:28.492Z,-2.60
2018-02-08T04:58:56.334Z,-2.60
2018-02-08T05:01:24.609Z,-2.60
2018-02-08T05:03:52.829Z,-2.60
2018-02-08T05:06:21.695Z,-2.70
2018-02-08T05:08:49.644Z,-2.70
2018-02-08T05:11:17.635Z,-2.70
2018-02-08T05:13:45.482Z,-2.70
2018-02-08T05:16:13.349Z,-2.70
2018-02-08T05:18:41.222Z,-2.90
2018-02-08T05:21:09.080Z,-2.90
2018-02-08T05:23:36.952Z,-2.90
2018-02-08T05:26:04.762Z,-2.80
2018-02-08T05:28:33.424Z,-2.90
2018-02-08T05:31:02.199Z,-2.90
2018-02-08T05:33:30.054Z,-2.90
2018-02-08T05:35:58.111Z,-2.90
2018-02-08T05:38:26.196Z,-2.90
2018-02-08T05:40:54.129Z,-2.90
2018-02-08T05:43:22.105Z,-3.00
2018-02-08T05:45:50.106Z,-3.00
2018-02-08T05:48:18.080Z,-3.00
2018-02-08T05:50:46.248Z,-3.00
2018-02-08T05:53:14.116Z,-3.00
2018-02-08T05:55:42.313Z,-3.00
2018-02-08T05:58:10.362Z,-3.00
2018-02-08T06:00:38.327Z,-3.00
2018-02-08T06:03:06.417Z,-3.00
2018-02-08T06:05:34.379Z,-2.90
2018-02-08T06:08:02.418Z,-2.90
2018-02-08T06:10:30.231Z,-2.90
2018-02-08T06:12:58.036Z,-2.90
2018-02-08T06:15:25.840Z,-2.90
2018-02-08T06:17:53.709Z,-2.90
2018-02-08T06:20:21.571Z,-2.80
2018-02-08T06:22:49.850Z,-2.90
2018-02-08T06:25:17.842Z,-2.80
2018-02-08T06:27:46.673Z,-2.90
2018-02-08T06:30:14.715Z,-2.90
2018-02-08T06:32:43.386Z,-2.90
2018-02-08T06:35:11.166Z,-3.00
2018-02-08T06:37:40.036Z,-3.00
2018-02-08T06:40:08.137Z,-3.00
2018-02-08T06:42:36.234Z,-3.00
2018-02-08T06:45:04.235Z,-3.00
2018-02-08T06:47:32.408Z,-3.10
2018-02-08T06:50:00.392Z,-3.10
2018-02-08T06:52:28.245Z,-3.10
2018-02-08T06:54:56.389Z,-3.10
2018-02-08T06:57:24.387Z,-3.10
2018-02-08T06:59:52.460Z,-3.00
2018-02-08T07:02:20.430Z,-3.00
2018-02-08T07:04:48.364Z,-2.90
2018-02-08T07:07:16.265Z,-2.90
2018-02-08T07:09:44.234Z,-2.80
2018-02-08T07:12:12.114Z,-2.80
2018-02-08T07:14:39.968Z,-2.70
2018-02-08T07:17:07.847Z,-2.70
2018-02-08T07:19:35.883Z,-2.70
2018-02-08T07:22:03.672Z,-2.70
2018-02-08T07:24:31.637Z,-2.60
2018-02-08T07:26:59.618Z,-2.50
2018-02-08T07:29:27.682Z,-2.40
2018-02-08T07:31:55.650Z,-2.30
2018-02-08T07:34:23.708Z,-2.20
2018-02-08T07:36:51.794Z,-2.10
2018-02-08T07:39:19.865Z,-2.10
2018-02-08T07:41:47.827Z,-2.00
2018-02-08T07:44:15.707Z,-2.00
2018-02-08T07:46:43.671Z,-1.90
2018-02-08T07:49:11.552Z,-1.80
2018-02-08T07:51:39.564Z,-1.80
2018-02-08T07:54:07.374Z,-1.60
2018-02-08T07:56:35.419Z,-1.60
2018-02-08T07:59:03.416Z,-1.50
2018-02-08T08:01:31.292Z,-1.40
2018-02-08T08:03:59.538Z,-1.30
2018-02-08T08:06:27.328Z,-1.30
2018-02-08T08:08:55.166Z,-1.20
2018-02-08T08:11:23.006Z,-1.20
2018-02-08T08:13:51.606Z,-1.10
2018-02-08T08:16:19.508Z,-1.10
2018-02-08T08:18:49.068Z,-1.00
2018-02-08T08:21:17.319Z,-1.00
2018-02-08T08:23:45.250Z,-0.90
2018-02-08T08:26:13.154Z,-0.90
2018-02-08T08:28:41.911Z,-0.80
2018-02-08T08:31:10.011Z,-0.70
2018-02-08T08:33:37.771Z,-0.60
2018-02-08T08:36:05.689Z,-0.60
2018-02-08T08:38:33.488Z,-0.50
2018-02-08T08:41:02.169Z,-0.50
2018-02-08T08:43:30.241Z,-0.40
2018-02-08T08:45:58.798Z,-0.30
2018-02-08T08:48:26.752Z,-0.20
2018-02-08T08:50:54.812Z,-0.20
2018-02-08T08:53:23.869Z,0.10
2018-02-08T08:55:52.375Z,0.10
2018-02-08T08:58:21.301Z,0.30
2018-02-08T09:00:49.314Z,0.30
2018-02-08T09:03:17.168Z,0.40
2018-02-08T09:05:45.323Z,0.40
2018-02-08T09:08:13.245Z,0.50
2018-02-08T09:10:41.511Z,0.60
2018-02-08T09:13:10.282Z,0.60
2018-02-08T09:15:38.451Z,0.60
2018-02-08T09:18:08.432Z,0.70
2018-02-08T09:20:36.497Z,0.80
2018-02-08T09:23:05.475Z,0.90
2018-02-08T09:25:34.566Z,1.00
2018-02-08T09:28:02.795Z,1.00
2018-02-08T09:30:30.868Z,1.10
2018-02-08T09:32:58.851Z,1.20
2018-02-08T09:35:26.847Z,1.30
2018-02-08T09:37:55.948Z,1.60
2018-02-08T09:40:24.800Z,1.70
2018-02-08T09:42:53.831Z,1.70
2018-02-08T09:45:23.090Z,2.00
2018-02-08T09:47:50.968Z,1.90
2018-02-08T09:50:19.048Z,2.10
2018-02-08T09:52:47.238Z,2.30
2018-02-08T09:55:15.192Z,2.40
2018-02-08T09:57:43.036Z,2.50
2018-02-08T10:00:10.903Z,2.60
2018-02-08T10:02:38.720Z,2.60
2018-02-08T10:05:07.357Z,2.80
2018-02-08T10:07:35.226Z,2.70
2018-02-08T10:10:03.086Z,2.90
2018-02-08T10:12:31.060Z,3.10
2018-02-08T10:14:59.220Z,3.20
2018-02-08T10:17:27.032Z,3.50
2018-02-08T10:19:55.641Z,4.20
2018-02-08T10:22:23.406Z,4.20
2018-02-08T10:24:51.138Z,4.40
2018-02-08T10:27:18.900Z,4.70
2018-02-08T10:29:47.520Z,5.20
2018-02-08T10:32:15.383Z,5.20
2018-02-08T10:34:43.191Z,5.30
2018-02-08T10:37:11.023Z,5.50
2018-02-08T10:39:38.799Z,5.80
2018-02-08T10:42:06.550Z,6.10
2018-02-08T10:44:34.800Z,6.20
2018-02-08T10:47:03.371Z,6.20
2018-02-08T10:49:31.230Z,6.20
2018-02-08T10:51:59.512Z,6.40
2018-02-08T10:54:27.225Z,6.50
2018-02-08T10:56:55.096Z,6.60
2018-02-08T10:59:22.870Z,6.80
2018-02-08T11:01:50.621Z,7.00
2018-02-08T11:04:21.694Z,7.20
2018-02-08T11:06:51.211Z,7.60
2018-02-08T11:09:22.715Z,7.60
2018-02-08T11:11:50.547Z,7.80
2018-02-08T11:14:19.178Z,8.00
2018-02-08T11:16:46.995Z,8.00
2018-02-08T11:19:15.070Z,7.90
2018-02-08T11:21:42.866Z,7.80
2018-02-08T11:24:11.507Z,7.80
2018-02-08T11:26:39.334Z,7.80
2018-02-08T11:29:07.154Z,7.70
2018-02-08T11:31:34.910Z,7.80
2018-02-08T11:34:03.403Z,8.00
2018-02-08T11:36:32.402Z,8.40
2018-02-08T11:39:01.482Z,8.60
2018-02-08T11:41:30.371Z,8.80
2018-02-08T11:44:00.771Z,9.00
2018-02-08T11:46:28.742Z,9.00
2018-02-08T11:48:56.917Z,9.20
2018-02-08T11:51:25.003Z,9.50
2018-02-08T11:53:53.059Z,9.40
2018-02-08T11:56:20.928Z,9.30
2018-02-08T11:58:49.447Z,9.50
2018-02-08T12:01:18.195Z,9.40
2018-02-08T12:03:46.210Z,9.40
2018-02-08T12:06:15.004Z,9.70
2018-02-08T12:08:44.776Z,9.90
2018-02-08T12:11:13.456Z,10.00
2018-02-08T12:13:41.660Z,10.00
2018-02-08T12:16:10.748Z,10.30
2018-02-08T12:18:38.761Z,10.30
2018-02-08T12:21:06.658Z,10.40
2018-02-08T12:23:35.736Z,10.60
2018-02-08T12:26:03.622Z,10.80
2018-02-08T12:28:31.488Z,11.00
2018-02-08T12:30:59.412Z,11.20
2018-02-08T12:33:28.272Z,11.20
2018-02-08T12:35:57.758Z,11.40
2018-02-08T12:38:25.926Z,11.40
2018-02-08T12:40:54.008Z,11.60
2018-02-08T12:43:23.782Z,11.50
2018-02-08T12:45:52.737Z,11.30
2018-02-08T12:48:21.828Z,11.60
2018-02-08T12:50:51.096Z,11.90
2018-02-08T12:53:19.416Z,11.80
2018-02-08T12:55:48.556Z,11.90
2018-02-08T12:58:16.503Z,11.90
2018-02-08T13:00:44.818Z,11.90
2018-02-08T13:03:13.462Z,11.80
2018-02-08T13:05:41.372Z,12.00
2018-02-08T13:08:09.217Z,12.20
2018-02-08T13:10:37.934Z,12.30
2018-02-08T13:13:05.790Z,12.40
2018-02-08T13:15:34.429Z,12.40
2018-02-08T13:18:02.342Z,12.40
2018-02-08T13:20:30.314Z,12.30
2018-02-08T13:22:58.974Z,12.30
2018-02-08T13:25:27.804Z,12.40
2018-02-08T13:27:55.766Z,12.40
2018-02-08T13:30:23.601Z,12.30
2018-02-08T13:32:51.401Z,12.20
2018-02-08T13:35:21.904Z,12.00
2018-02-08T13:37:50.149Z,11.80
2018-02-08T13:40:23.827Z,11.60
2018-02-08T13:42:56.488Z,11.50
2018-02-08T13:45:25.277Z,11.50
2018-02-08T13:48:01.362Z,11.40
2018-02-08T13:50:35.765Z,11.20
2018-02-08T13:56:21.216Z,10.90
2018-02-08T13:58:55.152Z,10.70
2018-02-08T14:01:24.916Z,10.30
2018-02-08T14:03:53.211Z,9.80
2018-02-08T14:06:21.110Z,9.60
2018-02-08T14:08:49.258Z,9.30
2018-02-08T14:11:20.690Z,8.80
2018-02-08T14:13:48.700Z,8.70
2018-02-08T14:16:16.979Z,8.60
2018-02-08T14:18:45.048Z,8.50
2018-02-08T14:21:12.921Z,8.30
2018-02-08T14:23:40.862Z,8.10
2018-02-08T14:26:09.253Z,8.00
2018-02-08T14:28:37.143Z,7.90
2018-02-08T14:31:05.141Z,7.80
2018-02-08T14:33:33.764Z,7.80
2018-02-08T14:36:03.095Z,7.70
2018-02-08T14:38:31.950Z,7.70
2018-02-08T14:41:00.194Z,7.50
2018-02-08T14:43:28.792Z,7.50
2018-02-08T14:45:57.546Z,7.60
2018-02-08T14:48:25.596Z,7.60
2018-02-08T14:50:53.464Z,7.50
2018-02-08T14:53:21.845Z,7.30
2018-02-08T14:55:50.031Z,7.00
2018-02-08T14:58:18.197Z,6.80
2018-02-08T15:00:46.363Z,6.60
2018-02-08T15:03:14.334Z,6.60
2018-02-08T15:05:42.411Z,6.50
2018-02-08T15:08:10.580Z,6.50
2018-02-08T15:10:39.445Z,6.40
2018-02-08T15:13:07.334Z,6.40
2018-02-08T15:15:35.275Z,6.30
2018-02-08T15:18:05.306Z,6.20
2018-02-08T15:20:33.130Z,6.10
2018-02-08T15:23:01.971Z,6.00
2018-02-08T15:25:29.953Z,6.00
2018-02-08T15:27:57.915Z,5.90
2018-02-08T15:30:26.226Z,5.80
2018-02-08T15:32:53.995Z,5.70
2018-02-08T15:35:21.940Z,5.50
2018-02-08T15:37:50.129Z,5.50
2018-02-08T15:40:18.073Z,5.40
2018-02-08T15:42:46.091Z,5.30
2018-02-08T15:45:14.216Z,5.30
2018-02-08T15:47:42.294Z,5.20
2018-02-08T15:50:10.253Z,5.10
2018-02-08T15:52:38.121Z,5.10
2018-02-08T15:55:06.147Z,5.00
2018-02-08T15:57:34.984Z,4.80
2018-02-08T16:00:02.726Z,4.80
2018-02-08T16:02:30.817Z,4.70
2018-02-08T16:04:58.810Z,4.60
2018-02-08T16:07:26.814Z,4.60
2018-02-08T16:09:54.834Z,4.50
2018-02-08T16:12:22.695Z,4.50
2018-02-08T16:14:50.743Z,4.40
2018-02-08T16:17:19.127Z,4.40
2018-02-08T16:19:47.198Z,4.30
2018-02-08T16:22:15.123Z,4.40
2018-02-08T16:24:43.774Z,4.50
2018-02-08T16:27:12.466Z,4.40
2018-02-08T16:29:40.322Z,4.40
2018-02-08T16:32:08.235Z,4.30
2018-02-08T16:34:36.991Z,4.20
2018-02-08T16:37:04.779Z,4.20
2018-02-08T16:39:33.467Z,4.00
2018-02-08T16:42:02.930Z,3.90
2018-02-08T16:44:30.714Z,3.80
2018-02-08T16:46:58.630Z,3.80
2018-02-08T16:49:26.363Z,3.70
2018-02-08T16:51:54.171Z,3.70
2018-02-08T16:54:22.102Z,3.60
2018-02-08T16:56:51.601Z,3.50
2018-02-08T16:59:20.344Z,3.40
2018-02-08T17:01:48.146Z,3.40
2018-02-08T17:04:15.974Z,3.50
2018-02-08T17:06:43.842Z,3.50
2018-02-08T17:09:11.626Z,3.60
2018-02-08T17:11:39.431Z,3.70
2018-02-08T17:14:07.940Z,3.70
2018-02-08T17:16:35.728Z,3.60
2018-02-08T17:19:03.610Z,3.60
2018-02-08T17:21:31.639Z,3.60
2018-02-08T17:23:59.487Z,3.60
2018-02-08T17:26:28.338Z,3.70
2018-02-08T17:28:56.192Z,3.70
2018-02-08T17:31:24.134Z,3.70
2018-02-08T17:33:52.127Z,3.70
2018-02-08T17:36:19.999Z,3.70
2018-02-08T17:38:48.080Z,3.70
2018-02-08T17:41:16.087Z,3.80
2018-02-08T17:43:44.929Z,3.80
2018-02-08T17:46:12.846Z,3.70
2018-02-08T17:48:41.886Z,3.70
2018-02-08T17:51:09.854Z,3.70
2018-02-08T17:53:37.856Z,3.80
2018-02-08T17:56:07.757Z,3.70
2018-02-08T17:58:36.254Z,3.70
2018-02-08T18:01:04.860Z,3.70
2018-02-08T18:03:33.567Z,3.70
2018-02-08T18:06:01.351Z,3.70
2018-02-08T18:08:29.231Z,3.70
2018-02-08T18:10:57.399Z,3.70
2018-02-08T18:13:25.278Z,3.60
2018-02-08T18:15:53.472Z,3.60
2018-02-08T18:18:21.497Z,3.60
2018-02-08T18:20:49.321Z,3.50
2018-02-08T18:23:18.274Z,3.60
2018-02-08T18:25:46.654Z,3.50
2018-02-08T18:28:14.522Z,3.50
2018-02-08T18:30:42.814Z,3.40
2018-02-08T18:33:11.588Z,3.40
2018-02-08T18:35:39.662Z,3.40
2018-02-08T18:38:07.674Z,3.50
2018-02-08T18:40:35.569Z,3.30
2018-02-08T18:43:03.783Z,3.30
2018-02-08T18:45:32.457Z,3.30
2018-02-08T18:48:00.401Z,3.30
2018-02-08T18:50:28.343Z,3.30
2018-02-08T18:52:57.203Z,3.30
2018-02-08T18:55:25.058Z,3.30
2018-02-08T18:57:53.027Z,3.20
2018-02-08T19:00:20.972Z,3.10
2018-02-08T19:02:49.182Z,3.10
2018-02-08T19:05:17.182Z,3.00
2018-02-08T19:07:45.920Z,3.00
2018-02-08T19:10:13.994Z,3.00
2018-02-08T19:12:41.961Z,3.00
2018-02-08T19:15:09.765Z,3.00
2018-02-08T19:17:38.574Z,2.90
2018-02-08T19:20:06.569Z,2.90
2018-02-08T19:22:34.949Z,2.90
2018-02-08T19:25:02.936Z,2.90
2018-02-08T19:27:31.006Z,2.90
2018-02-08T19:29:58.862Z,2.90
2018-02-08T19:32:26.741Z,2.90
2018-02-08T19:34:54.799Z,2.90
2018-02-08T19:37:22.744Z,2.90
2018-02-08T19:39:50.752Z,3.00
2018-02-08T19:42:18.658Z,2.90
2018-02-08T19:44:47.303Z,2.90
2018-02-08T19:47:15.142Z,2.80
2018-02-08T19:49:42.990Z,2.80
2018-02-08T19:52:10.913Z,2.70
2018-02-08T19:54:39.101Z,2.60
2018-02-08T19:57:06.964Z,2.60
2018-02-08T19:59:34.914Z,2.50
2018-02-08T20:02:02.783Z,2.50
2018-02-08T20:04:30.650Z,2.50
2018-02-08T20:06:58.701Z,2.50
2018-02-08T20:09:26.824Z,2.60
2018-02-08T20:11:54.838Z,2.60
2018-02-08T20:14:28.383Z,2.70
2018-02-08T20:16:56.264Z,2.60
2018-02-08T20:19:24.301Z,2.60
2018-02-08T20:21:52.129Z,2.60
2018-02-08T20:24:20.042Z,2.60
2018-02-08T20:26:48.675Z,2.70
2018-02-08T20:29:16.533Z,2.70
2018-02-08T20:31:45.254Z,2.80
2018-02-08T20:34:14.207Z,2.80
2018-02-08T20:36:42.793Z,2.80
2018-02-08T20:39:11.434Z,2.80
2018-02-08T20:41:39.301Z,2.80
2018-02-08T20:44:07.172Z,2.90
2018-02-08T20:46:35.125Z,2.90
2018-02-08T20:49:03.003Z,2.90
2018-02-08T20:51:30.890Z,2.80
2018-02-08T20:53:59.147Z,2.90
2018-02-08T20:56:26.859Z,2.80
2018-02-08T20:58:55.386Z,2.80
2018-02-08T21:01:23.176Z,2.70
2018-02-08T21:03:50.970Z,2.80
2018-02-08T21:06:19.759Z,2.70
2018-02-08T21:08:48.423Z,2.70
2018-02-08T21:11:17.190Z,2.70
2018-02-08T21:13:45.131Z,2.70
2018-02-08T21:16:13.286Z,2.70
2018-02-08T21:18:41.218Z,2.70
2018-02-08T21:21:09.062Z,2.70
2018-02-08T21:23:36.930Z,2.70
2018-02-08T21:26:04.798Z,2.70
2018-02-08T21:28:32.740Z,2.60
2018-02-08T21:31:00.733Z,2.60
2018-02-08T21:33:28.762Z,2.60
2018-02-08T21:35:56.776Z,2.50
2018-02-08T21:38:24.857Z,2.50
2018-02-08T21:40:52.701Z,2.50
2018-02-08T21:43:20.625Z,2.40
2018-02-08T21:45:49.353Z,2.40
2018-02-08T21:48:17.138Z,2.40
2018-02-08T21:50:45.310Z,2.40
2018-02-08T21:53:13.176Z,2.30
2018-02-08T21:55:41.043Z,2.30
2018-02-08T21:58:09.012Z,2.30
2018-02-08T22:00:37.134Z,2.30
2018-02-08T22:03:05.371Z,2.40
2018-02-08T22:05:33.228Z,2.40
2018-02-08T22:08:01.119Z,2.40
2018-02-08T22:10:29.064Z,2.40
2018-02-08T22:12:56.930Z,2.40
2018-02-08T22:15:24.746Z,2.40
2018-02-08T22:17:52.891Z,2.40
2018-02-08T22:20:20.735Z,2.30
2018-02-08T22:22:48.703Z,2.30
2018-02-08T22:25:16.672Z,2.20
2018-02-08T22:27:44.643Z,2.20
2018-02-08T22:30:12.616Z,2.20
2018-02-08T22:32:40.414Z,2.10
2018-02-08T22:35:09.064Z,2.20
2018-02-08T22:37:36.929Z,2.10
2018-02-08T22:40:04.845Z,2.20
2018-02-08T22:42:33.583Z,2.20
2018-02-08T22:45:01.592Z,2.20
2018-02-08T22:47:30.253Z,2.10
2018-02-08T22:49:58.160Z,2.10
2018-02-08T22:52:27.103Z,2.20
2018-02-08T22:54:55.175Z,2.20
2018-02-08T22:57:23.059Z,2.20
2018-02-08T22:59:51.010Z,2.30
2018-02-08T23:02:19.155Z,2.30
2018-02-08T23:04:47.154Z,2.30
2018-02-08T23:07:15.121Z,2.30
2018-02-08T23:09:42.988Z,2.30
2018-02-08T23:12:10.853Z,2.30
2018-02-08T23:14:38.925Z,2.20
2018-02-08T23:17:06.793Z,2.20
2018-02-08T23:19:34.731Z,2.20
2018-02-08T23:22:02.583Z,2.30
2018-02-08T23:24:30.496Z,2.30
2018-02-08T23:26:58.542Z,2.30
2018-02-08T23:29:26.357Z,2.30
2018-02-08T23:31:54.326Z,2.40
2018-02-08T23:34:22.272Z,2.40
2018-02-08T23:36:50.448Z,2.40
2018-02-08T23:39:18.333Z,2.30
2018-02-08T23:41:46.433Z,2.40
2018-02-08T23:44:15.129Z,2.40
2018-02-08T23:46:43.450Z,2.40
2018-02-08T23:49:11.333Z,2.40
2018-02-08T23:51:40.106Z,2.40
2018-02-08T23:54:08.294Z,2.40
2018-02-08T23:56:36.304Z,2.30
2018-02-08T23:59:04.410Z,2.30
